Time;durP1;ratioP1;P1;durP2;ratioP2;P2;SDS_P1;SDS_P2;PMS_P1;PMS_P2;Temp;Humidity;BMP_temperature;BMP_pressure;BME280_temperature;BME280_humidity;BME280_pressure;Samples;Min_cycle;Max_cycle;Signal;HPM_P1;HPM_P2
2022/03/30 00:01:05;;;;;;;55.10;37.83;;;;;;;11.56;46.56;100538.53;4990778;28;20026;-85
2022/03/30 00:03:31;;;;;;;46.28;31.77;;;;;;;11.23;45.17;100504.94;4990737;28;20030;-85
2022/03/30 00:05:57;;;;;;;43.88;30.40;;;;;;;11.39;45.86;100539.44;5006711;28;20029;-85
2022/03/30 00:08:22;;;;;;;34.03;21.77;;;;;;;11.31;45.24;100513.16;4990687;28;20022;-86
2022/03/30 00:10:48;;;;;;;28.95;20.23;;;;;;;11.51;44.61;100533.63;4974401;28;20097;-86
2022/03/30 00:13:13;;;;;;;25.55;15.95;;;;;;;11.52;43.51;100511.16;4991598;28;20408;-86
2022/03/30 00:15:39;;;;;;;30.08;15.52;;;;;;;11.80;42.99;100536.38;4990426;28;20053;-86
2022/03/30 00:18:04;;;;;;;22.92;13.57;;;;;;;12.11;42.36;100526.00;4991443;28;20178;-86
2022/03/30 00:20:30;;;;;;;21.58;13.30;;;;;;;12.21;41.86;100531.50;5006569;28;20033;-86
2022/03/30 00:22:55;;;;;;;22.80;13.85;;;;;;;12.15;41.67;100511.91;4990573;28;20399;-84
2022/03/30 00:25:21;;;;;;;24.27;13.52;;;;;;;12.42;42.34;100521.63;5006577;28;20061;-86
2022/03/30 00:27:47;;;;;;;26.30;13.95;;;;;;;12.46;41.12;100512.72;4990654;28;20113;-85
2022/03/30 00:30:14;;;;;;;21.13;11.95;;;;;;;12.59;41.05;100527.50;4990316;28;20126;-86
2022/03/30 00:32:40;;;;;;;20.92;12.18;;;;;;;12.89;41.03;100524.84;4990646;28;20027;-86
2022/03/30 00:35:07;;;;;;;19.83;10.55;;;;;;;13.08;39.71;100508.16;4973795;28;20502;-86
2022/03/30 00:37:36;;;;;;;22.20;10.57;;;;;;;13.37;39.09;100520.22;4990040;28;20494;-85
2022/03/30 00:40:03;;;;;;;20.88;10.73;;;;;;;13.34;39.17;100502.22;4990361;28;20113;-86
2022/03/30 00:42:29;;;;;;;24.45;10.70;;;;;;;13.82;38.29;100520.84;4990345;28;20022;-85
2022/03/30 00:44:55;;;;;;;20.77;10.70;;;;;;;13.73;38.06;100511.84;4990217;28;20033;-86
2022/03/30 00:47:25;;;;;;;18.67;10.48;;;;;;;13.80;38.18;100509.72;4990064;28;20404;-85
2022/03/30 00:49:51;;;;;;;20.55;10.27;;;;;;;13.97;37.50;100501.66;4973650;28;20121;-85
2022/03/30 00:52:16;;;;;;;17.25;9.88;;;;;;;14.07;37.48;100520.94;5008774;28;20022;-86
2022/03/30 00:54:43;;;;;;;20.02;11.10;;;;;;;13.94;37.56;100514.84;5010578;28;20061;-87
2022/03/30 00:57:09;;;;;;;20.00;10.48;;;;;;;13.81;38.02;100519.19;4977810;28;20019;-86
2022/03/30 00:59:35;;;;;;;20.20;10.63;;;;;;;13.65;37.89;100505.47;4993993;28;20026;-86
2022/03/30 01:02:01;;;;;;;19.98;10.00;;;;;;;13.79;37.94;100521.03;4994279;28;20018;-86
2022/03/30 01:04:27;;;;;;;19.88;10.57;;;;;;;14.10;37.29;100508.66;4993660;28;20488;-86
2022/03/30 01:06:52;;;;;;;18.83;10.20;;;;;;;14.17;38.18;100509.94;4993956;28;20037;-86
2022/03/30 01:09:18;;;;;;;17.70;10.43;;;;;;;14.10;37.19;100513.88;5009848;28;20173;-86
2022/03/30 01:11:43;;;;;;;21.35;9.85;;;;;;;14.18;37.66;100503.78;4993790;28;20027;-86
2022/03/30 01:14:09;;;;;;;19.17;10.35;;;;;;;14.09;37.03;100492.22;4977628;28;20394;-86
2022/03/30 01:16:34;;;;;;;20.98;9.52;;;;;;;14.17;37.30;100499.53;4993629;28;20502;-86
2022/03/30 01:19:05;;;;;;;20.23;10.13;;;;;;;14.26;37.13;100498.94;4993292;28;20050;-86
2022/03/30 01:21:31;;;;;;;19.65;10.60;;;;;;;14.36;37.01;100497.38;4993640;28;20035;-86
2022/03/30 01:23:56;;;;;;;16.38;10.13;;;;;;;14.17;36.90;100478.72;5010093;28;20395;-86
2022/03/30 01:26:23;;;;;;;24.75;9.90;;;;;;;14.30;36.92;100496.00;4977344;28;20026;-86
2022/03/30 01:28:49;;;;;;;22.25;10.20;;;;;;;14.31;37.29;100499.44;4977538;28;20026;-85
2022/03/30 01:33:58;;;;;;;16.63;9.40;;;;;;;13.93;37.25;100471.56;4993400;28;20033;-85
2022/03/30 01:36:25;;;;;;;20.92;10.07;;;;;;;14.15;36.79;100507.41;4993429;28;20030;-85
2022/03/30 01:38:51;;;;;;;25.63;17.48;;;;;;;13.92;39.76;100501.13;4977260;28;20026;-86
2022/03/30 01:41:16;;;;;;;29.30;18.30;;;;;;;13.59;41.07;100492.88;4993292;28;20455;-85
2022/03/30 01:43:42;;;;;;;35.90;21.90;;;;;;;13.12;42.34;100494.06;4993227;28;20057;-85
2022/03/30 01:46:07;;;;;;;30.27;21.77;;;;;;;13.00;43.46;100506.03;4994110;28;20026;-87
2022/03/30 01:48:33;;;;;;;33.40;23.30;;;;;;;12.67;45.15;100490.69;4993153;28;20113;-86
2022/03/30 01:50:59;;;;;;;33.10;24.23;;;;;;;12.57;45.31;100481.78;4993161;28;20038;-88
2022/03/30 01:53:25;;;;;;;30.88;22.40;;;;;;;12.58;45.40;100509.41;5009371;28;20041;-88
2022/03/30 01:55:51;;;;;;;36.17;24.55;;;;;;;12.43;46.16;100485.22;4993086;28;20030;-88
2022/03/30 01:58:17;;;;;;;37.67;25.05;;;;;;;12.44;46.27;100493.84;5009308;28;20036;-89
2022/03/30 02:00:43;;;;;;;37.67;26.33;;;;;;;12.30;46.75;100474.72;4992719;28;20033;-88
2022/03/30 02:03:09;;;;;;;38.63;26.83;;;;;;;12.16;47.30;100487.66;4993624;28;20610;-87
2022/03/30 02:05:34;;;;;;;37.78;24.95;;;;;;;12.02;47.22;100477.25;4992627;28;20046;-88
2022/03/30 02:08:00;;;;;;;41.72;25.70;;;;;;;12.20;47.63;100515.09;4992797;28;20018;-87
2022/03/30 02:10:25;;;;;;;41.00;26.60;;;;;;;11.97;48.14;100487.03;4992433;28;20081;-88
2022/03/30 02:12:51;;;;;;;38.03;25.02;;;;;;;12.08;47.34;100513.19;4992767;28;20029;-87
2022/03/30 02:15:16;;;;;;;36.50;26.13;;;;;;;12.03;48.16;100510.03;4992396;28;20029;-88
2022/03/30 02:17:42;;;;;;;37.42;24.98;;;;;;;11.91;48.51;100515.91;5025281;28;20046;-87
2022/03/30 02:20:08;;;;;;;36.60;24.80;;;;;;;11.72;48.64;100511.72;4993794;28;20439;-88
2022/03/30 02:22:34;;;;;;;30.80;19.63;;;;;;;11.86;46.73;100525.69;4992213;28;20026;-87
2022/03/30 02:24:59;;;;;;;31.88;19.00;;;;;;;11.94;46.44;100513.97;5008834;28;20028;-89
2022/03/30 02:27:24;;;;;;;30.13;21.27;;;;;;;11.96;47.08;100511.28;4993369;28;20395;-87
2022/03/30 02:29:51;;;;;;;32.38;17.67;;;;;;;11.70;46.05;100502.34;4975799;28;20030;-88
2022/03/30 02:32:17;;;;;;;29.13;17.60;;;;;;;11.77;44.59;100499.31;4992485;28;20109;-88
2022/03/30 02:34:43;;;;;;;37.45;20.50;;;;;;;11.92;46.79;100525.34;4976050;28;20018;-88
2022/03/30 02:37:09;;;;;;;33.35;19.35;;;;;;;11.80;47.31;100518.25;5008640;28;20022;-88
2022/03/30 02:39:35;;;;;;;36.60;20.90;;;;;;;11.76;47.51;100510.63;4975980;28;20466;-88
2022/03/30 02:42:01;;;;;;;34.80;18.73;;;;;;;11.85;47.10;100524.03;5008637;28;20110;-88
2022/03/30 02:44:27;;;;;;;23.00;12.57;;;;;;;11.80;44.11;100524.28;4991584;28;20037;-88
2022/03/30 02:46:52;;;;;;;17.67;7.63;;;;;;;12.09;42.94;100514.84;4975491;28;20500;-88
2022/03/30 02:49:18;;;;;;;19.75;10.45;;;;;;;12.09;42.59;100501.03;4992002;28;20030;-88
2022/03/30 02:51:43;;;;;;;21.67;10.82;;;;;;;12.43;42.51;100531.09;4993235;28;20018;-88
2022/03/30 02:54:09;;;;;;;22.23;11.90;;;;;;;12.35;42.53;100529.75;4991690;28;20451;-86
2022/03/30 02:56:34;;;;;;;20.42;10.48;;;;;;;12.27;41.91;100511.19;4993073;28;20388;-84
2022/03/30 02:59:00;;;;;;;23.13;10.88;;;;;;;12.37;41.66;100506.31;4991573;28;20049;-85
2022/03/30 03:01:25;;;;;;;23.55;10.77;;;;;;;12.40;42.29;100508.75;4991880;28;20022;-85
2022/03/30 03:03:51;;;;;;;21.00;11.52;;;;;;;12.57;41.96;100539.72;4975526;28;20093;-84
2022/03/30 03:06:17;;;;;;;24.17;10.27;;;;;;;12.62;41.85;100536.88;4992058;28;20030;-85
2022/03/30 03:08:42;;;;;;;22.90;9.82;;;;;;;12.56;41.49;100539.81;4992912;28;20029;-85
2022/03/30 03:11:08;;;;;;;20.58;8.40;;;;;;;12.44;41.00;100528.41;5007601;28;20030;-85
2022/03/30 03:13:33;;;;;;;15.65;7.20;;;;;;;12.81;39.88;100547.00;4991276;28;20026;-85
2022/03/30 03:15:59;;;;;;;20.10;8.07;;;;;;;13.01;39.40;100541.47;4975228;28;20037;-85
2022/03/30 03:18:24;;;;;;;17.38;7.53;;;;;;;13.28;38.72;100551.13;4991180;28;20049;-84
2022/03/30 03:20:50;;;;;;;18.80;7.05;;;;;;;13.86;37.54;100548.31;4991458;28;20516;-84
2022/03/30 03:23:16;;;;;;;17.50;6.20;;;;;;;14.06;36.58;100531.44;4991420;28;20030;-84
2022/03/30 03:25:41;;;;;;;53.65;8.35;;;;;;;14.23;36.68;100525.97;5007386;28;20068;-85
2022/03/30 03:28:08;;;;;;;17.13;6.90;;;;;;;14.34;36.29;100535.66;4990788;28;20030;-85
2022/03/30 03:30:34;;;;;;;17.67;5.95;;;;;;;14.44;35.79;100543.69;5001188;28;20104;-85
2022/03/30 03:33:01;;;;;;;17.83;6.68;;;;;;;14.49;36.33;100539.91;4994316;28;20020;-84
2022/03/30 03:35:30;;;;;;;19.88;7.20;;;;;;;14.62;36.52;100558.13;4993947;28;20052;-83
2022/03/30 03:37:56;;;;;;;15.98;8.95;;;;;;;15.05;36.73;100545.66;4993686;28;20022;-82
2022/03/30 03:40:21;;;;;;;58.88;9.18;;;;;;;15.34;34.48;100537.56;4994021;28;20064;-82
2022/03/30 03:42:48;;;;;;;30.98;8.77;;;;;;;15.60;35.27;100562.66;5010052;28;20021;-82
2022/03/30 03:45:14;;;;;;;40.08;11.15;;;;;;;15.55;35.09;100549.09;5010305;28;20025;-82
2022/03/30 03:47:41;;;;;;;26.63;10.07;;;;;;;15.36;34.53;100538.31;4994053;28;20036;-82
2022/03/30 03:50:07;;;;;;;21.65;8.10;;;;;;;14.98;34.90;100527.94;4993684;28;20037;-82
2022/03/30 03:52:32;;;;;;;20.92;7.70;;;;;;;14.73;35.47;100534.81;5010111;28;20025;-82
2022/03/30 03:54:58;;;;;;;19.42;7.70;;;;;;;14.57;35.42;100524.59;4993885;28;20117;-80
2022/03/30 03:57:23;;;;;;;14.88;6.32;;;;;;;14.41;36.15;100529.13;4993244;28;20022;-80
2022/03/30 03:59:49;;;;;;;17.08;6.32;;;;;;;14.25;36.55;100524.09;4993322;28;20021;-80
2022/03/30 04:02:14;;;;;;;17.88;6.05;;;;;;;14.27;36.73;100521.41;4992580;28;20037;-79
2022/03/30 04:04:40;;;;;;;15.27;6.28;;;;;;;14.47;36.22;100541.78;4992036;28;20687;-80
2022/03/30 04:07:06;;;;;;;14.75;6.00;;;;;;;14.25;36.47;100537.09;4992079;28;20030;-81
2022/03/30 04:09:31;;;;;;;21.60;6.38;;;;;;;13.84;37.09;100486.94;4992206;28;20026;-83
2022/03/30 04:11:57;;;;;;;17.88;6.43;;;;;;;14.10;37.38;100550.28;4992363;28;20508;-82
2022/03/30 04:14:23;;;;;;;15.35;6.18;;;;;;;13.86;37.13;100543.09;4993019;28;20029;-84
2022/03/30 04:16:49;;;;;;;17.90;6.32;;;;;;;13.90;36.86;100543.75;5010908;28;20487;-83
2022/03/30 04:19:17;;;;;;;28.60;12.77;;;;;;;13.85;37.63;100557.03;5010986;28;20073;-84
2022/03/30 04:21:43;;;;;;;26.67;10.30;;;;;;;13.86;37.47;100558.72;5003012;28;20510;-83
2022/03/30 04:24:09;;;;;;;23.25;9.98;;;;;;;13.71;37.70;100544.94;4993121;28;20101;-82
2022/03/30 04:26:34;;;;;;;19.42;9.65;;;;;;;13.72;37.53;100554.41;5005473;28;20100;-90
2022/03/30 04:29:00;;;;;;;22.92;9.73;;;;;;;13.73;37.72;100557.81;5008134;28;20523;-88
2022/03/30 04:31:25;;;;;;;23.85;9.13;;;;;;;13.52;37.86;100538.38;5008776;28;20120;-87
2022/03/30 04:33:53;;;;;;;18.25;8.50;;;;;;;13.65;38.27;100555.69;5025123;28;20022;-86
2022/03/30 04:36:18;;;;;;;19.73;8.38;;;;;;;13.69;37.64;100556.34;5008795;28;20076;-85
2022/03/30 04:38:44;;;;;;;18.38;7.53;;;;;;;13.72;37.58;100574.34;4990959;28;20121;-87
2022/03/30 04:41:09;;;;;;;23.30;8.50;;;;;;;13.62;37.73;100553.31;5009949;28;20061;-91
2022/03/30 04:43:35;;;;;;;21.27;8.38;;;;;;;13.57;37.94;100546.72;4993781;28;20141;-87
2022/03/30 04:46:00;;;;;;;20.95;9.35;;;;;;;13.68;38.05;100554.69;4992940;28;20506;-87
2022/03/30 04:48:26;;;;;;;25.40;9.48;;;;;;;13.53;37.86;100538.28;4992886;28;20116;-84
2022/03/30 04:50:52;;;;;;;22.17;10.02;;;;;;;13.52;38.29;100539.22;5009665;28;20064;-84
2022/03/30 04:53:17;;;;;;;25.48;9.77;;;;;;;13.62;37.51;100555.91;4990829;28;20029;-92
2022/03/30 04:55:44;;;;;;;20.25;9.20;;;;;;;13.65;38.04;100576.50;4994608;28;20022;-88
2022/03/30 04:58:09;;;;;;;24.52;10.77;;;;;;;13.67;37.62;100568.63;4992237;28;20451;-88
2022/03/30 05:00:35;;;;;;;22.88;10.25;;;;;;;13.50;38.35;100546.28;4991182;28;20022;-83
2022/03/30 05:03:00;;;;;;;25.80;9.80;;;;;;;13.50;38.42;100556.66;5007592;28;20422;-81
2022/03/30 05:05:27;;;;;;;25.17;10.70;;;;;;;13.53;38.82;100559.06;4989436;28;20487;-85
2022/03/30 05:07:53;;;;;;;32.60;16.45;;;;;;;13.53;38.54;100574.66;4973274;28;20503;-91
2022/03/30 05:10:18;;;;;;;36.72;15.38;;;;;;;13.49;38.50;100568.00;4989703;28;20073;-86
2022/03/30 05:12:44;;;;;;;35.95;15.18;;;;;;;13.60;37.90;100564.72;5009734;28;20466;-90
2022/03/30 05:15:10;;;;;;;29.58;13.20;;;;;;;13.66;38.23;100577.31;4989922;28;20113;-85
2022/03/30 05:17:44;;;;;;;31.75;13.57;;;;;;;13.67;38.79;100577.25;5003667;28;20112;-86
2022/03/30 05:20:13;;;;;;;25.55;11.60;;;;;;;13.80;38.00;100581.69;4984299;28;20026;-84
2022/03/30 05:22:38;;;;;;;28.45;12.15;;;;;;;13.89;38.23;100576.72;4995051;28;20476;-84
2022/03/30 05:25:05;;;;;;;24.02;10.00;;;;;;;13.82;38.23;100575.44;4991501;28;20108;-89
2022/03/30 05:27:31;;;;;;;25.20;10.48;;;;;;;13.90;38.01;100581.00;4988896;28;20535;-86
2022/03/30 05:29:57;;;;;;;20.67;10.65;;;;;;;13.95;37.65;100586.72;4990806;28;20121;-93
2022/03/30 05:32:23;;;;;;;20.83;8.57;;;;;;;13.96;37.49;100575.44;5009815;28;20029;-88
2022/03/30 05:34:49;;;;;;;23.77;8.50;;;;;;;13.95;38.96;100578.09;4995697;28;20116;-92
2022/03/30 05:37:15;;;;;;;20.30;7.82;;;;;;;13.95;37.11;100583.28;4990986;28;20395;-88
2022/03/30 05:39:41;;;;;;;19.27;8.13;;;;;;;14.13;37.58;100582.13;4990393;28;20033;-89
2022/03/30 05:42:11;;;;;;;25.77;7.85;;;;;;;14.04;37.31;100573.13;4988574;28;20034;-86
2022/03/30 05:44:37;;;;;;;20.85;8.18;;;;;;;14.30;37.53;100592.28;4989290;28;20206;-85
2022/03/30 05:47:03;;;;;;;21.23;8.35;;;;;;;14.36;36.85;100572.84;5005050;28;20468;-90
2022/03/30 05:49:28;;;;;;;25.35;9.48;;;;;;;14.48;37.44;100590.28;5005376;28;20516;-87
2022/03/30 05:51:54;;;;;;;23.60;9.23;;;;;;;14.44;37.22;100574.94;5008056;28;20029;-85
2022/03/30 05:54:19;;;;;;;19.35;8.35;;;;;;;14.50;36.94;100583.22;5012166;28;20467;-85
2022/03/30 05:57:00;;;;;;;27.58;12.48;;;;;;;14.52;37.07;100583.94;5015760;28;20042;-84
2022/03/30 05:59:29;;;;;;;24.23;8.82;;;;;;;14.78;36.83;100590.03;4996457;28;21003;-87
2022/03/30 06:01:55;;;;;;;25.50;9.30;;;;;;;14.63;36.58;100541.56;5027691;28;20089;-85
2022/03/30 06:04:21;;;;;;;29.90;9.95;;;;;;;14.84;36.48;100573.97;5006776;28;20535;-85
2022/03/30 06:06:46;;;;;;;23.70;9.95;;;;;;;15.04;35.57;100580.44;4989846;28;20129;-90
2022/03/30 06:09:12;;;;;;;29.58;9.50;;;;;;;15.15;36.16;100577.13;5003542;28;20117;-86
2022/03/30 06:11:37;;;;;;;24.92;9.93;;;;;;;15.23;36.07;100569.59;5011333;28;20741;-85
2022/03/30 06:14:03;;;;;;;26.90;9.38;;;;;;;15.25;36.40;100552.09;4994158;28;20038;-87
2022/03/30 06:16:28;;;;;;;21.83;9.55;;;;;;;15.44;35.76;100568.13;4995380;28;20451;-85
2022/03/30 06:18:54;;;;;;;23.30;8.60;;;;;;;15.44;35.45;100536.84;4995054;28;20077;-90
2022/03/30 06:21:20;;;;;;;18.25;7.47;;;;;;;15.73;35.26;100573.91;4992405;28;20384;-87
2022/03/30 06:23:46;;;;;;;18.45;7.63;;;;;;;15.87;35.27;100565.09;4993638;28;20084;-92
2022/03/30 06:26:11;;;;;;;15.65;7.10;;;;;;;16.04;35.40;100576.94;4979862;28;20033;-91
2022/03/30 06:28:37;;;;;;;20.80;9.32;;;;;;;16.14;34.73;100569.25;4988742;28;20034;-86
2022/03/30 06:31:03;;;;;;;17.05;7.35;;;;;;;16.20;34.91;100545.31;5008161;28;20037;-87
2022/03/30 06:33:29;;;;;;;17.58;6.72;;;;;;;16.42;34.20;100570.66;4993826;28;20059;-87
2022/03/30 06:35:55;;;;;;;22.10;9.20;;;;;;;16.53;35.00;100568.09;5000713;28;20104;-88
2022/03/30 06:38:20;;;;;;;23.85;10.27;;;;;;;16.74;33.94;100570.91;5004014;28;20492;-88
2022/03/30 06:40:47;;;;;;;16.98;7.75;;;;;;;16.67;34.38;100547.00;5003246;28;20114;-86
2022/03/30 06:43:14;;;;;;;13.43;6.60;;;;;;;16.85;34.02;100547.41;5009565;28;20125;-84
2022/03/30 06:45:39;;;;;;;19.58;6.43;;;;;;;17.16;33.71;100585.09;5009651;28;20040;-86
2022/03/30 06:48:05;;;;;;;17.98;6.70;;;;;;;17.33;32.66;100589.03;4994648;28;20060;-91
2022/03/30 06:50:32;;;;;;;14.25;6.43;;;;;;;17.43;32.47;100582.97;4974811;28;20033;-84
2022/03/30 06:52:58;;;;;;;18.25;6.55;;;;;;;17.53;32.38;100574.41;5013395;28;20022;-86
2022/03/30 06:55:24;;;;;;;19.38;7.13;;;;;;;17.48;32.66;100545.97;4992983;28;20061;-85
2022/03/30 06:57:50;;;;;;;18.95;7.28;;;;;;;17.86;31.91;100587.44;5008750;28;20037;-88
2022/03/30 07:00:17;;;;;;;18.13;6.45;;;;;;;18.12;32.17;100587.13;4992730;28;20503;-85
2022/03/30 07:02:43;;;;;;;22.55;7.63;;;;;;;18.27;31.52;100584.09;5006296;28;20486;-82
2022/03/30 07:05:08;;;;;;;19.35;6.57;;;;;;;18.31;31.63;100571.59;4992572;28;20109;-91
2022/03/30 07:10:18;;;;;;;14.85;6.03;;;;;;;18.46;29.39;100580.78;5008468;28;20040;-92
2022/03/30 07:12:48;;;;;;;16.30;6.60;;;;;;;18.43;29.87;100574.97;4969479;28;20034;-84
2022/03/30 07:15:15;;;;;;;18.35;7.53;;;;;;;18.55;30.30;100582.66;4994188;28;20076;-88
2022/03/30 07:17:51;;;;;;;19.45;6.50;;;;;;;18.52;29.45;100564.56;4992434;28;20136;-85
2022/03/30 07:20:17;;;;;;;20.65;7.15;;;;;;;18.72;29.06;100583.06;5006294;28;20027;-93
2022/03/30 07:22:43;;;;;;;16.42;7.28;;;;;;;18.59;29.28;100570.16;5023326;28;20038;-87
2022/03/30 07:25:09;;;;;;;20.63;6.43;;;;;;;18.83;28.48;100585.63;5010578;28;20120;-88
2022/03/30 07:27:42;;;;;;;17.63;7.50;;;;;;;18.84;29.57;100582.03;4991523;28;20022;-90
2022/03/30 07:30:08;;;;;;;16.88;6.22;;;;;;;18.80;28.62;100557.91;5025849;28;20100;-91
2022/03/30 07:32:39;;;;;;;13.27;6.65;;;;;;;18.85;28.80;100531.28;5001978;28;20049;-90
2022/03/30 07:35:07;;;;;;;15.73;8.07;;;;;;;19.30;28.31;100576.34;5032208;28;20136;-90
2022/03/30 07:37:32;;;;;;;14.15;6.30;;;;;;;19.48;28.09;100563.44;5019519;28;20599;-92
2022/03/30 07:39:59;;;;;;;15.95;6.03;;;;;;;19.48;28.31;100564.25;4979271;28;20034;-90
2022/03/30 07:42:25;;;;;;;15.75;6.03;;;;;;;19.71;27.36;100570.13;4995947;28;20030;-90
2022/03/30 07:44:51;;;;;;;14.52;5.88;;;;;;;19.90;27.32;100579.03;4995750;28;20118;-91
2022/03/30 07:47:17;;;;;;;14.20;5.72;;;;;;;19.89;26.85;100575.56;5006585;28;20437;-94
2022/03/30 07:49:43;;;;;;;17.02;6.13;;;;;;;19.71;27.27;100588.50;4976651;28;20066;-93
2022/03/30 07:52:09;;;;;;;18.92;6.32;;;;;;;19.67;27.32;100594.19;4974040;28;20026;-91
2022/03/30 07:54:34;;;;;;;16.85;6.13;;;;;;;19.42;26.75;100585.78;5012009;28;20033;-92
2022/03/30 07:57:00;;;;;;;19.30;5.80;;;;;;;19.38;27.11;100594.88;5000605;28;20025;-90
2022/03/30 07:59:26;;;;;;;21.08;5.68;;;;;;;19.33;27.36;100575.25;5013230;28;20030;-90
2022/03/30 08:01:54;;;;;;;17.92;6.07;;;;;;;19.39;27.09;100564.22;5028819;28;20030;-87
2022/03/30 08:04:20;;;;;;;15.15;5.47;;;;;;;19.42;27.24;100559.53;5024755;28;20034;-93
2022/03/30 08:06:46;;;;;;;18.05;5.90;;;;;;;19.59;27.21;100563.34;4991144;28;20034;-91
2022/03/30 08:09:14;;;;;;;15.80;5.55;;;;;;;19.74;27.44;100577.72;5011027;28;20029;-94
2022/03/30 08:11:40;;;;;;;15.13;5.60;;;;;;;19.71;27.35;100585.06;4980587;28;20433;-92
2022/03/30 08:14:06;;;;;;;18.35;5.68;;;;;;;19.66;27.15;100582.81;4995762;28;20092;-89
2022/03/30 08:16:33;;;;;;;15.88;5.72;;;;;;;19.80;26.60;100601.81;5042262;28;20080;-91
2022/03/30 08:18:59;;;;;;;20.95;6.43;;;;;;;19.82;26.56;100607.75;4974371;28;20175;-90
2022/03/30 08:24:11;;;;;;;19.13;5.85;;;;;;;19.79;26.18;100574.72;5007588;28;20124;-95
2022/03/30 08:26:41;;;;;;;11.57;5.28;;;;;;;19.93;26.63;100591.88;5012545;28;20036;-86
2022/03/30 08:29:08;;;;;;;14.20;5.22;;;;;;;19.96;26.80;100568.81;5004308;28;20079;-85
2022/03/30 08:31:34;;;;;;;17.20;5.35;;;;;;;20.14;26.90;100582.06;4990863;28;20551;-92
2022/03/30 08:34:00;;;;;;;14.88;5.05;;;;;;;20.27;26.89;100576.56;4993221;28;20030;-90
2022/03/30 08:36:29;;;;;;;12.68;4.80;;;;;;;20.43;26.03;100578.66;5007345;28;20028;-91
2022/03/30 08:38:56;;;;;;;16.95;5.88;;;;;;;20.21;25.65;100540.34;4989370;28;20472;-91
2022/03/30 08:41:21;;;;;;;12.77;5.00;;;;;;;20.41;25.83;100580.56;5004047;28;20021;-86
2022/03/30 08:43:47;;;;;;;20.15;5.65;;;;;;;20.32;26.09;100593.56;4991429;28;20041;-90
2022/03/30 08:46:14;;;;;;;18.58;5.55;;;;;;;20.24;25.38;100585.53;5026023;28;20117;-88
2022/03/30 08:48:40;;;;;;;11.10;4.88;;;;;;;20.25;25.47;100579.31;4990628;28;20046;-90
2022/03/30 08:51:05;;;;;;;12.02;4.97;;;;;;;20.01;26.13;100561.34;4975862;28;20038;-86
2022/03/30 08:53:31;;;;;;;17.90;5.45;;;;;;;20.09;25.37;100571.16;4995620;28;20086;-92
2022/03/30 08:55:57;;;;;;;18.45;5.30;;;;;;;20.18;25.76;100557.19;4993120;28;20037;-86
2022/03/30 08:58:23;;;;;;;21.15;5.60;;;;;;;20.46;26.21;100570.50;5008281;28;20193;-87
2022/03/30 09:00:49;;;;;;;19.27;5.95;;;;;;;20.76;26.22;100566.84;5009191;28;20022;-85
2022/03/30 09:03:15;;;;;;;14.77;4.82;;;;;;;20.78;25.33;100570.16;4994277;28;20083;-88
2022/03/30 09:05:41;;;;;;;15.15;5.82;;;;;;;20.81;25.53;100564.63;4985414;28;20022;-87
2022/03/30 09:08:14;;;;;;;13.00;5.07;;;;;;;20.73;24.84;100541.66;4988890;28;20068;-88
2022/03/30 09:10:44;;;;;;;22.63;5.60;;;;;;;20.58;24.82;100556.22;5006204;28;20492;-89
2022/03/30 09:13:10;;;;;;;17.50;5.72;;;;;;;20.34;24.71;100552.19;4990853;28;20062;-86
2022/03/30 09:15:38;;;;;;;16.90;5.72;;;;;;;20.39;25.23;100551.78;5007219;28;20018;-87
2022/03/30 09:18:04;;;;;;;21.55;6.20;;;;;;;20.42;26.00;100561.19;4994440;28;20053;-93
2022/03/30 09:20:31;;;;;;;15.57;5.50;;;;;;;20.42;25.37;100558.56;4998346;28;20042;-95
2022/03/30 09:22:59;;;;;;;18.08;6.20;;;;;;;20.54;25.57;100549.56;4982536;28;20060;-89
2022/03/30 09:25:30;;;;;;;22.52;5.80;;;;;;;20.69;25.26;100550.81;5009891;28;20030;-85
2022/03/30 09:27:57;;;;;;;21.13;5.82;;;;;;;21.11;24.69;100560.91;4993900;28;20034;-88
2022/03/30 09:30:24;;;;;;;19.05;5.65;;;;;;;21.28;25.89;100540.94;4993655;28;20099;-90
2022/03/30 09:32:51;;;;;;;11.35;4.60;;;;;;;21.40;24.56;100530.06;4996427;28;20030;-93
2022/03/30 09:35:38;;;;;;;13.35;4.28;;;;;;;21.34;24.67;100525.41;4998477;28;20136;-94
2022/03/30 09:38:12;;;;;;;17.10;4.63;;;;;;;21.63;24.06;100519.97;4996634;28;20030;-90
2022/03/30 09:40:47;;;;;;;18.75;5.55;;;;;;;21.87;24.55;100531.72;4995403;28;20073;-92
2022/03/30 09:43:16;;;;;;;17.38;5.75;;;;;;;21.94;24.19;100527.50;5011395;28;20030;-85
2022/03/30 09:45:42;;;;;;;18.20;4.88;;;;;;;21.71;23.44;100529.75;5012448;28;20037;-84
2022/03/30 09:48:21;;;;;;;18.05;5.00;;;;;;;21.96;23.67;100526.38;4995887;28;20029;-84
2022/03/30 09:50:52;;;;;;;21.17;4.85;;;;;;;21.62;23.33;100518.28;5011305;28;20034;-88
2022/03/30 09:53:19;;;;;;;22.35;5.93;;;;;;;21.78;24.68;100517.63;4996326;28;20030;-89
2022/03/30 09:55:56;;;;;;;15.90;4.95;;;;;;;21.70;23.96;100513.13;5011229;28;20115;-86
2022/03/30 09:58:23;;;;;;;23.45;5.35;;;;;;;21.59;23.75;100481.75;4994095;28;20057;-84
2022/03/30 10:01:09;;;;;;;16.13;4.95;;;;;;;21.56;23.28;100512.81;4994184;28;20022;-91
2022/03/30 10:03:51;;;;;;;15.10;4.57;;;;;;;21.14;23.83;100500.16;5012755;28;20041;-86
2022/03/30 10:06:24;;;;;;;21.55;5.80;;;;;;;21.07;24.25;100499.06;4995228;28;20076;-90
2022/03/30 10:08:50;;;;;;;21.65;5.88;;;;;;;21.12;24.04;100499.44;4995921;28;20038;-88
2022/03/30 10:11:16;;;;;;;21.25;5.15;;;;;;;21.11;24.17;100505.69;5011094;28;20030;-86
2022/03/30 10:13:43;;;;;;;17.27;5.65;;;;;;;21.26;25.49;100498.13;4994503;28;20018;-86
2022/03/30 10:16:09;;;;;;;23.48;6.95;;;;;;;21.59;24.02;100491.44;5011711;28;20029;-89
2022/03/30 10:18:35;;;;;;;19.02;4.95;;;;;;;21.64;23.64;100447.91;4993391;28;20121;-85
2022/03/30 10:21:42;;;;;;;18.95;4.93;;;;;;;21.96;23.81;100478.97;5011741;28;20037;-88
2022/03/30 10:24:26;;;;;;;21.42;5.55;;;;;;;22.00;23.44;100490.84;4994019;28;20516;-87
2022/03/30 10:27:11;;;;;;;17.98;5.15;;;;;;;22.02;23.32;100481.00;5012244;28;20038;-90
2022/03/30 10:29:37;;;;;;;21.95;5.03;;;;;;;21.77;23.14;100466.78;5009811;28;20025;-88
2022/03/30 10:32:19;;;;;;;14.63;4.97;;;;;;;21.89;23.69;100467.38;4996649;28;20403;-91
2022/03/30 10:34:52;;;;;;;19.38;4.78;;;;;;;21.68;23.71;100485.28;5009527;28;20034;-86
2022/03/30 10:37:28;;;;;;;19.55;5.18;;;;;;;21.62;23.84;100472.72;4996211;28;20116;-85
2022/03/30 10:40:07;;;;;;;19.92;4.90;;;;;;;21.65;23.92;100468.00;5019729;28;20029;-84
2022/03/30 10:42:47;;;;;;;18.92;4.78;;;;;;;21.67;24.27;100467.84;4994331;28;20111;-85
2022/03/30 10:45:28;;;;;;;22.90;4.78;;;;;;;21.56;23.28;100454.91;5010882;28;20100;-85
2022/03/30 10:48:07;;;;;;;25.00;4.88;;;;;;;21.51;23.90;100459.78;5009305;28;20030;-87
2022/03/30 10:50:34;;;;;;;19.55;4.63;;;;;;;21.53;24.17;100458.63;5007648;28;20034;-88
2022/03/30 10:52:59;;;;;;;19.48;5.13;;;;;;;21.41;24.42;100450.13;4976942;28;20493;-83
2022/03/30 10:55:25;;;;;;;17.65;4.65;;;;;;;21.55;24.12;100455.88;4991788;28;20125;-89
2022/03/30 10:58:04;;;;;;;16.67;4.50;;;;;;;21.44;24.57;100467.47;5009786;28;20026;-85
2022/03/30 11:00:34;;;;;;;17.90;4.78;;;;;;;21.22;25.31;100444.16;4994489;28;20045;-85
2022/03/30 11:03:06;;;;;;;22.88;5.22;;;;;;;21.45;25.65;100448.88;5004234;28;20037;-86
2022/03/30 11:05:32;;;;;;;10.90;3.95;;;;;;;21.40;24.58;100459.00;5033749;28;20492;-87
2022/03/30 11:07:58;;;;;;;20.55;5.43;;;;;;;21.39;24.60;100438.94;4992548;28;20084;-87
2022/03/30 11:10:25;;;;;;;21.35;4.85;;;;;;;21.56;25.24;100437.31;5007569;28;20092;-87
2022/03/30 11:13:02;;;;;;;15.68;5.18;;;;;;;21.54;25.50;100435.81;5012931;28;20053;-85
2022/03/30 11:15:28;;;;;;;17.65;5.50;;;;;;;21.53;25.19;100444.66;5028871;28;20112;-92
2022/03/30 11:17:55;;;;;;;17.20;4.38;;;;;;;21.28;24.57;100435.69;5002819;28;20057;-89
2022/03/30 11:20:23;;;;;;;17.40;4.18;;;;;;;21.22;24.64;100421.28;5008069;28;20419;-90
2022/03/30 11:22:49;;;;;;;18.00;5.63;;;;;;;21.53;24.52;100419.16;4992564;28;20037;-89